createdAt,value
2024-03-05T00:02:21.092Z,41.23
2024-03-05T00:04:48.210Z,46.13
2024-03-05T00:07:16.900Z,44.03
2024-03-05T00:09:43.595Z,45.67
2024-03-05T00:12:12.850Z,44.77
2024-03-05T00:14:39.638Z,45.67
2024-03-05T00:17:06.193Z,43.80
2024-03-05T00:19:32.761Z,50.13
2024-03-05T00:21:59.334Z,43.57
2024-03-05T00:24:25.855Z,46.30
2024-03-05T00:26:52.355Z,47.67
2024-03-05T00:29:18.876Z,45.73
2024-03-05T00:31:45.550Z,47.33
2024-03-05T00:34:12.166Z,45.97
2024-03-05T00:36:38.698Z,45.33
2024-03-05T00:39:05.207Z,43.90
2024-03-05T00:41:31.734Z,49.00
2024-03-05T00:43:58.355Z,48.77
2024-03-05T00:46:26.244Z,49.80
2024-03-05T00:48:52.974Z,46.50
2024-03-05T00:51:19.563Z,48.73
2024-03-05T00:53:46.180Z,48.07
2024-03-05T00:56:12.719Z,50.20
2024-03-05T00:58:39.251Z,48.43
2024-03-05T01:01:08.410Z,46.87
2024-03-05T01:03:35.057Z,49.30
2024-03-05T01:06:04.811Z,46.83
2024-03-05T01:08:34.277Z,46.50
2024-03-05T01:11:02.056Z,46.07
2024-03-05T01:13:29.048Z,45.43
2024-03-05T01:15:55.646Z,49.40
2024-03-05T01:18:22.582Z,45.30
2024-03-05T01:20:49.113Z,46.97
2024-03-05T01:23:15.620Z,45.87
2024-03-05T01:25:42.235Z,44.53
2024-03-05T01:28:09.170Z,47.80
2024-03-05T01:30:36.026Z,52.07
2024-03-05T01:33:06.571Z,47.23
2024-03-05T01:35:33.495Z,44.00
2024-03-05T01:38:00.090Z,41.77
2024-03-05T01:40:26.680Z,47.70
2024-03-05T01:42:53.210Z,39.67
2024-03-05T01:45:19.890Z,48.73
2024-03-05T01:47:49.137Z,45.23
2024-03-05T01:50:17.302Z,47.00
2024-03-05T01:52:45.154Z,44.47
2024-03-05T01:55:15.867Z,45.40
2024-03-05T01:57:47.274Z,44.43
2024-03-05T02:00:16.851Z,44.70
2024-03-05T02:02:43.998Z,44.37
2024-03-05T02:05:13.691Z,42.37
2024-03-05T02:07:41.888Z,45.53
2024-03-05T02:10:09.040Z,45.77
2024-03-05T02:12:37.890Z,49.77
2024-03-05T02:15:12.063Z,47.03
2024-03-05T02:17:42.064Z,47.00
2024-03-05T02:20:11.225Z,47.23
2024-03-05T02:22:38.802Z,51.17
2024-03-05T02:25:06.445Z,53.80
2024-03-05T02:27:35.291Z,57.97
2024-03-05T02:30:03.860Z,58.70
2024-03-05T02:32:30.920Z,52.60
2024-03-05T02:34:57.546Z,52.17
2024-03-05T02:37:24.199Z,49.23
2024-03-05T02:39:50.988Z,57.23
2024-03-05T02:42:17.563Z,54.00
2024-03-05T02:44:44.115Z,58.27
2024-03-05T02:47:10.678Z,54.90
2024-03-05T02:49:38.120Z,53.00
2024-03-05T02:52:05.014Z,52.87
2024-03-05T02:54:31.641Z,55.47
2024-03-05T02:56:58.139Z,52.83
2024-03-05T02:59:25.264Z,54.83
2024-03-05T03:01:52.051Z,49.57
2024-03-05T03:04:18.718Z,50.53
2024-03-05T03:06:45.300Z,56.57
2024-03-05T03:09:11.868Z,52.33
2024-03-05T03:11:42.351Z,54.30
2024-03-05T03:14:10.281Z,48.27
2024-03-05T03:16:36.840Z,50.57
2024-03-05T03:19:05.742Z,52.50
2024-03-05T03:21:32.492Z,49.33
2024-03-05T03:23:59.012Z,54.10
2024-03-05T03:26:26.073Z,48.37
2024-03-05T03:28:53.431Z,46.97
2024-03-05T03:31:20.349Z,59.27
2024-03-05T03:33:46.925Z,56.37
2024-03-05T03:36:22.467Z,49.90
2024-03-05T03:38:49.266Z,63.50
2024-03-05T03:41:16.461Z,55.67
2024-03-05T03:43:43.438Z,54.20
2024-03-05T03:46:10.018Z,51.07
2024-03-05T03:48:40.299Z,53.77
2024-03-05T03:51:06.824Z,52.13
2024-03-05T03:53:36.637Z,50.87
2024-03-05T03:56:03.749Z,52.23
2024-03-05T03:58:31.815Z,49.73
2024-03-05T04:01:00.092Z,48.80
2024-03-05T04:03:26.680Z,50.37
2024-03-05T04:05:53.679Z,50.50
2024-03-05T04:08:20.234Z,49.40
2024-03-05T04:10:46.898Z,52.00
2024-03-05T04:13:14.064Z,52.80
2024-03-05T04:15:40.845Z,50.60
2024-03-05T04:18:07.458Z,51.33
2024-03-05T04:20:33.983Z,49.27
2024-03-05T04:23:00.560Z,49.93
2024-03-05T04:25:35.574Z,48.30
2024-03-05T04:28:11.747Z,47.50
2024-03-05T04:30:39.343Z,50.13
2024-03-05T04:33:10.625Z,47.23
2024-03-05T04:35:38.124Z,48.80
2024-03-05T04:38:08.055Z,46.33
2024-03-05T04:40:35.281Z,46.47
2024-03-05T04:43:02.301Z,49.57
2024-03-05T04:45:28.925Z,50.67
2024-03-05T04:47:56.005Z,48.13
2024-03-05T04:50:22.807Z,56.33
2024-03-05T04:52:49.621Z,51.93
2024-03-05T04:55:16.623Z,53.80
2024-03-05T04:57:43.257Z,47.53
2024-03-05T05:00:20.903Z,45.23
2024-03-05T05:02:49.077Z,45.97
2024-03-05T05:05:16.895Z,40.93
2024-03-05T05:07:45.094Z,47.40
2024-03-05T05:10:11.987Z,46.10
2024-03-05T05:12:40.212Z,49.83
2024-03-05T05:15:08.268Z,46.63
2024-03-05T05:17:35.407Z,47.03
2024-03-05T05:20:05.308Z,47.40
2024-03-05T05:22:31.918Z,47.07
2024-03-05T05:24:58.462Z,55.10
2024-03-05T05:27:24.946Z,56.77
2024-03-05T05:29:53.336Z,48.87
2024-03-05T05:32:23.109Z,49.10
2024-03-05T05:34:49.688Z,46.70
2024-03-05T05:37:16.860Z,51.33
2024-03-05T05:39:43.483Z,48.30
2024-03-05T05:42:13.119Z,49.00
2024-03-05T05:44:39.679Z,48.33
2024-03-05T05:47:06.314Z,49.93
2024-03-05T05:49:33.701Z,53.37
2024-03-05T05:52:00.367Z,48.43
2024-03-05T05:54:26.916Z,45.87
2024-03-05T05:56:53.434Z,47.70
2024-03-05T05:59:20.007Z,48.60
2024-03-05T06:01:46.668Z,44.50
2024-03-05T06:04:14.177Z,45.40
2024-03-05T06:06:40.760Z,45.20
2024-03-05T06:09:10.307Z,46.97
2024-03-05T06:11:40.158Z,47.37
2024-03-05T06:14:08.140Z,42.73
2024-03-05T06:16:34.930Z,46.93
2024-03-05T06:19:02.230Z,48.53
2024-03-05T06:21:29.137Z,47.60
2024-03-05T06:23:55.692Z,43.37
2024-03-05T06:26:22.687Z,47.33
2024-03-05T06:28:49.360Z,45.87
2024-03-05T06:31:16.020Z,48.00
2024-03-05T06:33:42.577Z,44.50
2024-03-05T06:36:09.212Z,48.23
2024-03-05T06:38:35.888Z,47.87
2024-03-05T06:41:04.354Z,54.90
2024-03-05T06:43:42.672Z,52.80
2024-03-05T06:46:14.426Z,48.37
2024-03-05T06:48:48.661Z,50.47
2024-03-05T06:51:28.399Z,50.20
2024-03-05T06:54:13.274Z,52.70
2024-03-05T06:56:42.517Z,48.47
2024-03-05T06:59:12.206Z,47.90
2024-03-05T07:01:38.907Z,55.47
2024-03-05T07:04:07.815Z,46.87
2024-03-05T07:06:36.139Z,45.50
2024-03-05T07:09:03.573Z,49.43
2024-03-05T07:11:30.867Z,51.83
2024-03-05T07:13:59.079Z,51.57
2024-03-05T07:16:25.993Z,54.40
2024-03-05T07:18:54.481Z,53.77
2024-03-05T07:21:23.013Z,52.47
2024-03-05T07:23:51.713Z,46.47
2024-03-05T07:26:21.733Z,45.20
2024-03-05T07:28:48.479Z,52.57
2024-03-05T07:31:16.637Z,53.97
2024-03-05T07:33:44.554Z,53.17
2024-03-05T07:36:11.507Z,51.90
2024-03-05T07:38:39.548Z,48.37
2024-03-05T07:41:14.011Z,52.13
2024-03-05T07:43:48.972Z,51.90
2024-03-05T07:46:18.669Z,47.23
2024-03-05T07:48:45.355Z,49.17
2024-03-05T07:51:12.251Z,47.30
2024-03-05T07:53:42.254Z,49.37
2024-03-05T07:56:09.335Z,47.10
2024-03-05T07:58:36.465Z,50.70
2024-03-05T08:01:03.194Z,59.40
2024-03-05T08:03:30.025Z,50.70
2024-03-05T08:05:56.560Z,51.07
2024-03-05T08:08:26.573Z,51.87
2024-03-05T08:10:53.228Z,51.53
2024-03-05T08:13:21.179Z,52.00
2024-03-05T08:15:47.846Z,51.90
2024-03-05T08:18:14.397Z,47.67
2024-03-05T08:20:41.286Z,42.57
2024-03-05T08:23:08.865Z,42.47
2024-03-05T08:25:35.539Z,55.57
2024-03-05T08:28:02.148Z,70.00
2024-03-05T08:30:33.588Z,48.03
2024-03-05T08:33:05.957Z,46.00
2024-03-05T08:35:32.728Z,45.13
2024-03-05T08:38:00.696Z,55.93
2024-03-05T08:40:28.886Z,51.03
2024-03-05T08:42:56.473Z,48.17
2024-03-05T08:45:26.409Z,46.07
2024-03-05T08:47:55.027Z,43.70
2024-03-05T08:50:22.971Z,41.03
2024-03-05T08:52:50.069Z,44.40
2024-03-05T08:55:19.065Z,41.27
2024-03-05T08:57:46.321Z,44.37
2024-03-05T09:00:31.199Z,44.13
2024-03-05T09:03:04.688Z,38.60
2024-03-05T09:05:33.345Z,40.47
2024-03-05T09:08:00.181Z,39.13
2024-03-05T09:10:27.062Z,39.87
2024-03-05T09:12:53.594Z,36.90
2024-03-05T09:15:20.226Z,35.83
2024-03-05T09:17:47.752Z,36.67
2024-03-05T09:20:18.283Z,35.97
2024-03-05T09:22:46.663Z,38.33
2024-03-05T09:25:14.776Z,35.90
2024-03-05T09:27:46.545Z,30.33
2024-03-05T09:30:16.486Z,29.40
2024-03-05T09:32:44.673Z,31.43
2024-03-05T09:35:14.142Z,27.03
2024-03-05T09:37:41.582Z,26.93
2024-03-05T09:40:11.797Z,28.17
2024-03-05T09:42:38.572Z,29.07
2024-03-05T09:45:07.781Z,26.70
2024-03-05T09:47:37.638Z,32.33
2024-03-05T09:50:06.152Z,26.53
2024-03-05T09:52:34.782Z,26.80
2024-03-05T09:55:02.412Z,26.87
2024-03-05T09:57:35.684Z,26.40
2024-03-05T10:00:05.244Z,26.70
2024-03-05T10:02:32.547Z,24.93
2024-03-05T10:05:03.118Z,24.60
2024-03-05T10:07:29.984Z,25.20
2024-03-05T10:10:23.298Z,19.50
2024-03-05T10:12:53.618Z,25.13
2024-03-05T10:15:27.275Z,19.53
2024-03-05T10:17:56.358Z,22.80
2024-03-05T10:20:30.108Z,21.87
2024-03-05T10:23:02.350Z,23.60
2024-03-05T10:25:30.723Z,25.67
2024-03-05T10:27:57.680Z,25.60
2024-03-05T10:30:34.091Z,24.50
2024-03-05T10:33:03.807Z,24.97
2024-03-05T10:35:32.863Z,25.27
2024-03-05T10:38:10.998Z,25.37
2024-03-05T10:40:41.339Z,24.47
2024-03-05T10:43:09.690Z,23.80
2024-03-05T10:45:42.335Z,22.37
2024-03-05T10:48:11.299Z,20.60
2024-03-05T10:50:41.442Z,18.13
2024-03-05T10:53:08.786Z,19.87
2024-03-05T10:55:38.104Z,24.40
2024-03-05T10:58:15.366Z,24.23
2024-03-05T11:00:44.666Z,20.07
2024-03-05T11:03:13.355Z,20.30
2024-03-05T11:05:52.957Z,18.93
2024-03-05T11:08:28.864Z,21.20
2024-03-05T11:11:04.192Z,23.07
2024-03-05T11:13:33.712Z,19.37
2024-03-05T11:16:05.015Z,18.27
2024-03-05T11:18:34.226Z,19.83
2024-03-05T11:21:11.461Z,19.47
2024-03-05T11:23:42.191Z,20.30
2024-03-05T11:26:17.624Z,19.03
2024-03-05T11:28:44.330Z,18.07
2024-03-05T11:31:11.555Z,16.53
2024-03-05T11:33:41.538Z,17.17
2024-03-05T11:36:17.011Z,19.37
2024-03-05T11:39:05.376Z,14.43
2024-03-05T11:41:33.461Z,14.53
2024-03-05T11:44:00.415Z,16.60
2024-03-05T11:46:45.954Z,15.97
2024-03-05T11:49:16.534Z,19.07
2024-03-05T11:51:47.334Z,16.57
2024-03-05T11:54:15.401Z,17.47
2024-03-05T11:56:44.452Z,16.60
2024-03-05T11:59:14.924Z,16.13
2024-03-05T12:01:42.981Z,16.80
2024-03-05T12:04:12.636Z,17.30
2024-03-05T12:06:42.098Z,18.47
2024-03-05T12:09:22.016Z,16.23
2024-03-05T12:12:07.013Z,17.93
2024-03-05T12:14:35.483Z,18.43
2024-03-05T12:17:13.657Z,21.27
2024-03-05T12:19:41.524Z,20.67
2024-03-05T12:22:08.300Z,18.23
2024-03-05T12:24:36.091Z,26.90
2024-03-05T12:27:04.610Z,29.10
2024-03-05T12:29:38.399Z,22.20
2024-03-05T12:32:06.428Z,20.70
2024-03-05T12:34:37.195Z,20.13
2024-03-05T12:37:09.290Z,22.43
2024-03-05T12:39:36.948Z,21.60
2024-03-05T12:42:08.453Z,16.87
2024-03-05T12:44:35.560Z,17.10
2024-03-05T12:47:17.626Z,21.20
2024-03-05T12:49:46.844Z,20.53
2024-03-05T12:52:21.563Z,21.23
2024-03-05T12:54:58.256Z,19.73
2024-03-05T12:57:29.656Z,19.00
2024-03-05T13:00:11.356Z,18.93
2024-03-05T13:02:38.999Z,20.97
2024-03-05T13:05:06.498Z,19.73
2024-03-05T13:07:35.654Z,17.80
2024-03-05T13:10:08.217Z,20.07
2024-03-05T13:12:35.038Z,23.17
2024-03-05T13:15:01.585Z,24.03
2024-03-05T13:17:28.119Z,23.90
2024-03-05T13:19:54.748Z,23.77
2024-03-05T13:22:23.204Z,24.87
2024-03-05T13:24:49.755Z,22.93
2024-03-05T13:27:16.497Z,24.20
2024-03-05T13:29:42.994Z,21.13
2024-03-05T13:32:09.613Z,25.80
2024-03-05T13:34:36.247Z,29.27
2024-03-05T13:37:02.914Z,24.63
2024-03-05T13:39:29.469Z,29.37
2024-03-05T13:41:56.170Z,22.03
2024-03-05T13:44:23.826Z,30.17
2024-03-05T13:46:52.103Z,28.13
2024-03-05T13:49:20.825Z,23.60
2024-03-05T13:51:47.719Z,26.83
2024-03-05T13:54:14.559Z,27.27
2024-03-05T13:56:44.204Z,22.43
2024-03-05T13:59:12.091Z,24.10
2024-03-05T14:01:39.495Z,21.87
2024-03-05T14:04:10.869Z,23.43
2024-03-05T14:06:38.678Z,21.37
2024-03-05T14:09:05.778Z,26.07
2024-03-05T14:11:33.529Z,24.00
2024-03-05T14:14:02.101Z,25.93
2024-03-05T14:16:28.890Z,23.17
2024-03-05T14:18:56.553Z,28.87
2024-03-05T14:21:23.631Z,21.27
2024-03-05T14:23:50.195Z,25.77
2024-03-05T14:26:18.063Z,25.13
2024-03-05T14:28:44.993Z,25.43
2024-03-05T14:31:12.672Z,28.73
2024-03-05T14:33:41.946Z,26.20
2024-03-05T14:36:13.544Z,23.43
2024-03-05T14:38:43.395Z,24.87
2024-03-05T14:41:11.142Z,26.30
2024-03-05T14:43:38.604Z,27.73
2024-03-05T14:46:06.600Z,27.07
2024-03-05T14:48:34.214Z,28.07
2024-03-05T14:51:01.449Z,28.37
2024-03-05T14:53:28.425Z,27.20
2024-03-05T14:55:55.327Z,28.63
2024-03-05T14:58:22.034Z,26.83
2024-03-05T15:00:48.586Z,28.37
2024-03-05T15:03:15.131Z,25.47
2024-03-05T15:05:42.620Z,25.53
2024-03-05T15:08:11.045Z,24.70
2024-03-05T15:10:37.774Z,25.83
2024-03-05T15:13:04.489Z,25.60
2024-03-05T15:15:31.055Z,27.33
2024-03-05T15:17:57.611Z,26.17
2024-03-05T15:20:24.926Z,24.50
2024-03-05T15:22:51.884Z,23.80
2024-03-05T15:25:23.770Z,27.27
2024-03-05T15:28:01.106Z,27.13
2024-03-05T15:30:33.094Z,26.90
2024-03-05T15:33:01.371Z,26.37
2024-03-05T15:35:29.737Z,26.30
2024-03-05T15:37:59.959Z,28.67
2024-03-05T15:40:27.623Z,28.83
2024-03-05T15:42:57.071Z,26.10
2024-03-05T15:45:30.707Z,29.70
2024-03-05T15:47:59.589Z,31.40
2024-03-05T15:50:30.781Z,29.93
2024-03-05T15:53:03.711Z,29.47
2024-03-05T15:55:30.850Z,29.77
2024-03-05T15:58:04.934Z,31.70
2024-03-05T16:00:37.104Z,30.40
2024-03-05T16:03:06.423Z,29.83
2024-03-05T16:05:42.421Z,26.93
2024-03-05T16:08:15.923Z,32.63
2024-03-05T16:10:48.285Z,33.03
2024-03-05T16:13:16.666Z,33.07
2024-03-05T16:15:46.852Z,32.83
2024-03-05T16:18:14.252Z,31.40
2024-03-05T16:20:40.822Z,29.93
2024-03-05T16:23:11.527Z,33.30
2024-03-05T16:25:42.687Z,31.03
2024-03-05T16:28:11.472Z,34.63
2024-03-05T16:30:39.018Z,31.77
2024-03-05T16:33:06.743Z,31.83
2024-03-05T16:35:33.830Z,41.00
2024-03-05T16:38:01.591Z,39.73
2024-03-05T16:40:28.454Z,36.50
2024-03-05T16:42:57.252Z,36.47
2024-03-05T16:45:25.625Z,33.47
2024-03-05T16:47:54.402Z,33.93
2024-03-05T16:50:21.137Z,31.23
2024-03-05T16:52:50.072Z,31.13
2024-03-05T16:55:18.755Z,32.27
2024-03-05T16:57:46.375Z,32.80
2024-03-05T17:00:18.064Z,30.70
2024-03-05T17:02:46.421Z,29.77
2024-03-05T17:05:19.070Z,30.30
2024-03-05T17:07:47.938Z,30.37
2024-03-05T17:10:16.539Z,29.20
2024-03-05T17:12:43.647Z,34.47
2024-03-05T17:15:13.502Z,30.07
2024-03-05T17:17:42.085Z,29.43
2024-03-05T17:20:12.727Z,31.87
2024-03-05T17:22:42.821Z,31.63
2024-03-05T17:25:09.967Z,31.20
2024-03-05T17:27:36.822Z,28.53
2024-03-05T17:30:06.931Z,26.77
2024-03-05T17:32:33.481Z,25.87
2024-03-05T17:35:00.266Z,28.57
2024-03-05T17:37:26.926Z,30.47
2024-03-05T17:39:53.450Z,27.90
2024-03-05T17:42:20.026Z,31.90
2024-03-05T17:44:46.637Z,30.47
2024-03-05T17:47:13.302Z,29.13
2024-03-05T17:49:40.141Z,30.03
2024-03-05T17:52:06.725Z,30.70
2024-03-05T17:54:33.280Z,28.40
2024-03-05T17:56:59.865Z,28.37
2024-03-05T17:59:26.561Z,30.87
2024-03-05T18:01:53.930Z,30.87
2024-03-05T18:04:20.670Z,26.57
2024-03-05T18:06:47.241Z,26.50
2024-03-05T18:09:22.693Z,25.27
2024-03-05T18:11:49.496Z,26.13
2024-03-05T18:14:16.043Z,26.17
2024-03-05T18:16:42.716Z,23.50
2024-03-05T18:19:09.702Z,26.63
2024-03-05T18:21:36.262Z,24.80
2024-03-05T18:24:05.141Z,24.00
2024-03-05T18:26:31.930Z,24.93
2024-03-05T18:28:58.960Z,24.63
2024-03-05T18:31:31.919Z,22.90
2024-03-05T18:34:05.496Z,25.77
2024-03-05T18:36:32.037Z,31.20
2024-03-05T18:38:58.804Z,25.30
2024-03-05T18:41:25.428Z,24.13
2024-03-05T18:43:53.166Z,23.30
2024-03-05T18:46:20.114Z,24.17
2024-03-05T18:48:47.005Z,24.07
2024-03-05T18:51:15.137Z,24.47
2024-03-05T18:53:46.562Z,22.97
2024-03-05T18:56:17.216Z,22.60
2024-03-05T18:58:44.339Z,21.93
2024-03-05T19:01:12.870Z,17.20
2024-03-05T19:03:40.107Z,18.80
2024-03-05T19:06:07.043Z,15.70
2024-03-05T19:08:33.738Z,16.13
2024-03-05T19:11:00.354Z,16.53
2024-03-05T19:13:27.052Z,14.87
2024-03-05T19:15:53.538Z,13.67
2024-03-05T19:18:20.802Z,12.50
2024-03-05T19:20:47.536Z,12.47
2024-03-05T19:23:14.147Z,13.30
2024-03-05T19:25:40.723Z,13.83
2024-03-05T19:28:07.316Z,12.57
2024-03-05T19:30:33.847Z,10.63
2024-03-05T19:33:02.021Z,11.40
2024-03-05T19:35:28.582Z,10.97
2024-03-05T19:37:57.456Z,10.70
2024-03-05T19:40:26.541Z,8.93
2024-03-05T19:42:59.161Z,10.37
2024-03-05T19:45:30.538Z,8.60
2024-03-05T19:47:58.557Z,10.40
2024-03-05T19:50:25.497Z,10.87
2024-03-05T19:52:56.108Z,10.73
2024-03-05T19:55:23.525Z,10.37
2024-03-05T19:57:51.199Z,12.27
2024-03-05T20:00:19.804Z,12.97
2024-03-05T20:02:48.211Z,13.30
2024-03-05T20:05:17.988Z,11.00
2024-03-05T20:07:45.591Z,14.70
2024-03-05T20:10:12.605Z,13.03
2024-03-05T20:12:40.345Z,12.07
2024-03-05T20:15:14.612Z,11.73
2024-03-05T20:17:42.480Z,12.07
2024-03-05T20:20:17.495Z,10.40
2024-03-05T20:22:48.445Z,10.97
2024-03-05T20:25:19.209Z,10.50
2024-03-05T20:27:50.967Z,13.87
2024-03-05T20:30:17.941Z,12.13
2024-03-05T20:32:45.979Z,11.37
2024-03-05T20:35:16.502Z,12.23
2024-03-05T20:37:52.211Z,13.20
2024-03-05T20:40:21.118Z,12.40
2024-03-05T20:42:48.119Z,11.97
2024-03-05T20:45:15.286Z,12.57
2024-03-05T20:47:42.460Z,9.80
2024-03-05T20:50:11.143Z,13.83
2024-03-05T20:52:38.289Z,14.87
2024-03-05T20:55:05.331Z,13.80
2024-03-05T20:57:37.286Z,12.20
2024-03-05T21:00:07.989Z,13.17
2024-03-05T21:02:38.023Z,11.60
2024-03-05T21:05:06.055Z,13.63
2024-03-05T21:07:33.805Z,11.57
2024-03-05T21:10:10.360Z,12.33
2024-03-05T21:12:38.737Z,13.50
2024-03-05T21:15:12.384Z,10.83
2024-03-05T21:17:39.876Z,12.00
2024-03-05T21:20:11.333Z,13.13
2024-03-05T21:22:39.198Z,10.33
2024-03-05T21:25:09.065Z,14.97
2024-03-05T21:27:36.568Z,10.90
2024-03-05T21:30:07.240Z,11.70
2024-03-05T21:32:34.246Z,10.87
2024-03-05T21:35:07.665Z,11.57
2024-03-05T21:37:36.577Z,11.33
2024-03-05T21:40:06.141Z,10.03
2024-03-05T21:42:33.771Z,11.60
2024-03-05T21:45:00.673Z,9.47
2024-03-05T21:47:27.431Z,10.43
2024-03-05T21:49:54.013Z,11.27
2024-03-05T21:52:20.628Z,9.67
2024-03-05T21:54:47.161Z,8.90
2024-03-05T21:57:13.784Z,10.37
2024-03-05T21:59:40.306Z,9.90
2024-03-05T22:02:07.811Z,10.60
2024-03-05T22:04:34.674Z,10.13
2024-03-05T22:07:01.293Z,10.40
2024-03-05T22:09:27.818Z,9.47
2024-03-05T22:11:54.414Z,9.77
2024-03-05T22:14:20.968Z,12.73
2024-03-05T22:16:47.623Z,10.80
2024-03-05T22:19:14.357Z,13.40
2024-03-05T22:21:40.969Z,13.33
2024-03-05T22:24:07.869Z,12.53
2024-03-05T22:26:34.826Z,11.17
2024-03-05T22:29:02.061Z,10.17
2024-03-05T22:31:31.038Z,9.77
2024-03-05T22:33:57.825Z,11.23
2024-03-05T22:36:25.170Z,11.27
2024-03-05T22:38:51.950Z,11.33
2024-03-05T22:41:18.816Z,12.60
2024-03-05T22:43:45.505Z,10.27
2024-03-05T22:46:12.066Z,11.73
2024-03-05T22:48:39.793Z,14.37
2024-03-05T22:51:09.917Z,10.53
2024-03-05T22:53:38.579Z,11.87
2024-03-05T22:56:05.971Z,11.83
2024-03-05T22:58:32.556Z,12.60
2024-03-05T23:00:59.769Z,12.03
2024-03-05T23:03:29.346Z,12.03
2024-03-05T23:05:55.995Z,13.17
2024-03-05T23:08:22.781Z,12.90
2024-03-05T23:10:49.807Z,12.40
2024-03-05T23:13:16.443Z,15.40
2024-03-05T23:15:43.389Z,14.13
2024-03-05T23:18:10.445Z,12.83
2024-03-05T23:20:37.077Z,12.93
2024-03-05T23:23:04.493Z,14.67
2024-03-05T23:25:31.105Z,13.87
2024-03-05T23:28:00.282Z,11.80
2024-03-05T23:30:27.082Z,14.07
2024-03-05T23:32:54.182Z,11.47
2024-03-05T23:35:21.146Z,13.03
2024-03-05T23:37:48.007Z,10.67
2024-03-05T23:40:14.898Z,13.43
2024-03-05T23:42:41.788Z,11.50
2024-03-05T23:45:08.920Z,13.07
2024-03-05T23:47:35.583Z,12.57
2024-03-05T23:50:02.933Z,12.33
2024-03-05T23:52:29.692Z,11.63
2024-03-05T23:54:59.976Z,11.73
2024-03-05T23:57:28.962Z,11.50
2024-03-05T23:59:55.659Z,12.77
